St. Johann, Austria
Current Conditions -  °F | °C
As of 6:20 AM on Thursday 29 Jan 2015 (Local Time) from LOWS Reporting Station
Light Snow Light Snow  
Wind Chill: 30°   Ceiling: 3100
Heat Index: 30°   Visibility: 6mi
Dew Point: 30°   Wind: 3mph
Humidity: 100%   Direction: 140°SE
Pressure: 29.53"   Gusts: NA
Location:  47.52°N, 12.45°E
Report Text: LOWS 290420Z 14003KT 110V180 9999 -SN FEW010 SCT017 BKN031 M01/M01 Q1000 WS ALL RWY R15/29//95 NOSIG
Loading
Personal Weather Stations






























Interactive Weather Map New forecast layout! Learn more

10-Day Weather Forecast

Advertisements
Track Severe Weather on mobile